x

West Dixon Entrance (46205) Wave Buoy

12:00pm - Mon 8th Feb 2016 All times are PST. -8 hours from GMT.

  • Sig Wave height 16.4ft
  • Peak Period 15s
  • Wind
    31mph, 40mph gusts
  • Sea Temp 48°f
  • Air Temp 49°f
  • Sea Pressure 1013.1mb
  • West Dixon Entrance
  • West Dixon Entrance

More Historic Weather Station data

Upgrade to MSW Pro to gain access to the past 30 days of data for over 8000 Wavebouys and Weather Stations around the globe.

Join Pro

Comparision Forecast

View Surf forecast
   
Mon 02/08 12:00pm 16.5ft 15s 31 40 mph 1013.1mb 48f 49f
11:00am 18ft 14s 29 38 mph 1013.4mb 48f 49f
10:00am 18ft 14s 29 36 mph 1013mb 49f 49f
9:00am 18ft 15s 29 36 mph 1012.4mb 49f 49f
8:00am 18.5ft 15s 31 38 mph 1011.6mb 49f 49f
7:00am 21.5ft 16s 27 36 mph 1011.5mb 48f 49f
6:00am 19.5ft 14s 27 34 mph 1011.6mb 48f 49f
5:00am 18ft 16s 25 31 mph 1011.6mb 48f 49f
4:00am 18.5ft 17s 22 27 mph 1011.8mb 48f 48f
3:00am 17.5ft 17s 16 20 mph 1013mb 48f 48f
2:00am 18ft 17s 22 34 mph 1014mb 48f 45f
1:00am 20ft 17s 25 34 mph 1015.1mb 48f 45f
12:00am 18.5ft 15s 22 31 mph 1016.4mb 48f 45f
Sun 02/07 11:00pm 19.5ft 17s 20 27 mph 1017.9mb 48f 45f
10:00pm 19.5ft 17s 16 22 mph 1018.9mb 48f 46f
9:00pm 16.5ft 17s 18 27 mph 1019mb 48f 46f
8:00pm 17.5ft 18s 16 20 mph 1018.7mb 48f 47f
7:00pm 15.5ft 18s 18 20 mph 1019mb 48f 48f
6:00pm 13.5ft 10s 13 18 mph 1018.9mb 48f 47f
5:00pm 14.5ft 10s 11 13 mph 1019.5mb 48f 47f
4:00pm 13.5ft 11s 11 16 mph 1018.9mb 48f 47f
3:00pm 13.5ft 11s 13 18 mph 1018.6mb 48f 47f
2:00pm 13.5ft 11s 11 16 mph 1018.7mb 48f 47f
1:00pm 12.5ft 12s 11 13 mph 1018.4mb 48f 47f
12:00pm 14ft 11s 13 16 mph 1017.4mb 48f 47f
11:00am 14ft 11s 11 16 mph 1017.1mb 48f 47f
10:00am 17.5ft 11s 11 18 mph 1015.9mb 48f 48f
9:00am 15.5ft 11s 16 20 mph 1015.9mb 48f 48f
8:00am 16.5ft 11s 13 18 mph 1013.8mb 48f 48f
7:00am 16ft 11s 16 20 mph 1013.4mb 48f 48f
6:00am 18ft 10s 18 25 mph 1012.7mb 48f 48f
5:00am 17.5ft 10s 22 29 mph 1011.6mb 48f 48f
4:00am 16.5ft 10s 31 36 mph 1010.7mb 48f 47f
3:00am 16ft 10s 36 47 mph 1010.4mb 48f 47f
2:00am 14ft 8s 36 45 mph 1010.5mb 48f 46f
1:00am 12ft 10s 34 45 mph 1012.1mb 48f 44f
12:00am 12ft 11s 29 38 mph 1014.1mb 48f 43f
Sat 02/06 11:00pm 11ft 10s 31 38 mph 1015.2mb 48f 44f
10:00pm 12ft 12s 29 36 mph 1016.4mb 48f 45f
9:00pm 12ft 11s 27 36 mph 1017.5mb 48f 45f
8:00pm 12.5ft 12s 29 34 mph 1017.9mb 48f 45f
7:00pm 12ft 12s 25 31 mph 1019.2mb 48f 45f
6:00pm 13ft 12s 22 34 mph 1020.8mb 48f 45f
5:00pm 12ft 13s 22 29 mph 1021mb 48f 45f
4:00pm 13ft 12s 18 25 mph 1021.4mb 48f 45f
3:00pm 12ft 12s 18 22 mph 1021.5mb 48f 45f
2:00pm 12.5ft 13s 13 18 mph 1021.9mb 48f 45f
1:00pm 12.5ft 12s 11 16 mph 1022.2mb 48f 45f
12:00pm 13ft 13s 11 13 mph 1022.1mb 48f 45f
11:00am 12.5ft 12s 11 16 mph 1021.6mb 48f 44f
10:00am 13ft 12s 13 20 mph 1020.8mb 48f 44f
9:00am 12ft 13s 7 11 mph 1019.8mb 48f 44f
8:00am 14.5ft 12s 13 25 mph 1019.1mb 48f 43f
7:00am 14ft 12s 11 16 mph 1018.2mb 48f 43f
6:00am 14ft 12s 18 25 mph 1017.5mb 48f 44f
5:00am 14ft 13s 18 25 mph 1016.7mb 48f 44f
4:00am 13ft 12s 20 25 mph 1015.7mb 48f 44f
3:00am 13ft 12s 25 29 mph 1014mb 48f 43f
2:00am 14.5ft 12s 22 27 mph 1012.5mb 48f 44f
1:00am 14ft 12s 22 29 mph 1011.1mb 48f 43f
12:00am 13ft 12s 27 31 mph 1009.3mb 48f 42f
Fri 02/05 11:00pm 14.5ft 12s 18 25 mph 1008.2mb 48f 42f
10:00pm 15ft 12s 20 25 mph 1007mb 48f 43f
9:00pm 14.5ft 11s 16 20 mph 1005.9mb 48f 43f
8:00pm 15ft 12s 16 22 mph 1005.1mb 48f 43f
7:00pm 15.5ft 12s 11 18 mph 1004.4mb 48f 43f
6:00pm 17ft 13s 4 9 mph 1003.8mb 48f 43f
5:00pm 15.5ft 12s 7 11 mph 1003.1mb 48f 42f
4:00pm 16ft 11s 9 13 mph 1002.6mb 48f 42f
3:00pm 15ft 12s 11 16 mph 1001.8mb 47f 42f
2:00pm 16.5ft 13s 9 20 mph 1001.6mb 47f 43f
1:00pm 16.5ft 12s 7 9 mph 1001.2mb 47f 44f
12:00pm 15.5ft 12s 7 11 mph 1001.1mb 47f 45f
11:00am 16ft 12s 7 11 mph 1001.1mb 47f 45f
10:00am 15ft 12s 7 11 mph 1000.7mb 47f 45f
9:00am 16ft 13s 7 11 mph 1000.1mb 47f 45f
8:00am 16ft 14s 7 11 mph 999.8mb 47f 45f
7:00am 16ft 11s 4 11 mph 999.6mb 47f 44f
6:00am 17ft 12s 13 18 mph 999.5mb 47f 44f
5:00am 15.5ft 12s 11 13 mph 999.5mb 47f 45f
4:00am 17ft 11s 11 16 mph 998.6mb 47f 45f
3:00am 16.5ft 12s 7 11 mph 998.4mb 47f 45f
2:00am 17.5ft 12s 11 16 mph 997.4mb 47f 45f
1:00am 15ft 12s 13 18 mph 996.5mb 47f 45f
12:00am 17ft 14s 9 13 mph 996.2mb 47f 45f
Thu 02/04 11:00pm 18.5ft 14s 7 11 mph 995.4mb 47f 44f
10:00pm 17.5ft 12s 11 16 mph 994.6mb 47f 44f